LTBS Airport Information

Runway Information
Runway 01 Length 9842 ft width 148 ft
Elevation 10 ft Threshold 0 ft Heading 15
Runway 19 Length 9842 ft Width 148 ft
Elevation 20 ft Threshold 0 ft Heading 195
Airport Frequencies
Type APP Name APP Frequency 119.225 MHZ
Type ATIS Name ATIS Frequency 127.35 MHZ
Type GND Name GND Frequency 121.9 MHZ
Type TWR Name TWR Frequency 118.5 MHZ
Airport Navaids
Type TACAN Name Dalaman Frequency 115300 KHZ
Type VOR-DME Name Dalaman Frequency 114700 KHZ
Type NDB Name Dalaman Frequency 346 KHZ
Airport Weather Information & NOTAM
ADDS - METARS form results

(1934 UTC 15 December 2018)
Data provider http://aviationweather.gov/metar/data/
 
METAR text: LTBS 151920Z 07004KT 020V120 9999 SCT030 BKN100 12/10 Q1019 NOSIG
Conditions at: LTBS (DALAMAN (COMMUNE, TR) observed 1920 UTC 15 December 2018
Temperature: 12.0°C (54°F)
Dewpoint: 10.0°C (50°F) [RH = 88%]
Pressure (altimeter): 30.09 inches Hg (1019.0 mb)
Winds: from the ENE (70 degrees) at 5 MPH (4 knots; 2.1 m/s)
Visibility: 6 or more miles (10+ km)
Ceiling: 10000 feet AGL
Clouds: scattered clouds at 3000 feet AGL
broken clouds at 10000 feet AGL
Weather: no significant weather observed at this time

METAR text: LTBS 151850Z 02004KT 360V080 9999 SCT030 BKN100 13/11 Q1019 NOSIG
Conditions at: LTBS (DALAMAN (COMMUNE, TR) observed 1850 UTC 15 December 2018
Temperature: 13.0°C (55°F)
Dewpoint: 11.0°C (52°F) [RH = 88%]
Pressure (altimeter): 30.09 inches Hg (1019.0 mb)
Winds: from the NNE (20 degrees) at 5 MPH (4 knots; 2.1 m/s)
Visibility: 6 or more miles (10+ km)
Ceiling: 10000 feet AGL
Clouds: scattered clouds at 3000 feet AGL
broken clouds at 10000 feet AGL
Weather: no significant weather observed at this time

Forecast for: AMD
Text: TAF AMD LTBS 151648Z 1516/1612 15009KT 9999 -SHRA SCT030 BKN100
Forecast period: 1600 UTC 15 December 2018 to 1200 UTC 16 December 2018
Forecast type: FROM: standard forecast or significant change
Winds: from the SSE (150 degrees) at 10 MPH (9 knots; 4.6 m/s)
Visibility: 6 or more miles 10+ km)
Ceiling: 10000 feet AGL
Clouds: scattered clouds at 3000 feet AGL
broken clouds at 10000 feet AGL
Weather: -SHRA  (light rain showers)
Text: PROB30
Forecast period: 0000 to 0400 UTC 16 December 2018
Forecast type: TEMPORARY: The following changes expected for less than half the time period
Visibility: 2.49 miles (4.01 km)
Ceiling: 3000 feet AGL
Clouds: few clouds at 1500 feet AGL
broken clouds at 3000 feet AGL
Weather: TSRA  (rain associated with thunderstorm(s))